Time;durP1;ratioP1;P1;durP2;ratioP2;P2;SDS_P1;SDS_P2;PMS_P1;PMS_P2;Temp;Humidity;BMP_temperature;BMP_pressure;BME280_temperature;BME280_humidity;BME280_pressure;Samples;Min_cycle;Max_cycle;Signal;HPM_P1;HPM_P2
2024/01/23 00:00:27;;;;;;;144.35;76.18;;;;;;;-5.29;64.71;95687.53;4203150;28;20078;-69
2024/01/23 00:02:29;;;;;;;149.07;72.65;;;;;;;-5.46;64.75;95693.06;4184949;28;20040;-69
2024/01/23 00:04:32;;;;;;;143.68;73.40;;;;;;;-5.61;66.17;95703.66;4188340;28;20458;-70
2024/01/23 00:06:34;;;;;;;138.55;71.25;;;;;;;-5.65;65.58;95702.88;4176312;28;20052;-70
2024/01/23 00:08:36;;;;;;;140.00;70.80;;;;;;;-5.62;66.15;95700.25;4182981;28;20408;-70
2024/01/23 00:10:38;;;;;;;141.45;69.18;;;;;;;-5.68;66.04;95704.66;4191823;28;20111;-69
2024/01/23 00:12:40;;;;;;;137.55;69.90;;;;;;;-5.68;66.32;95704.66;4188170;28;20059;-70
2024/01/23 00:14:41;;;;;;;136.43;66.25;;;;;;;-5.55;66.85;95711.13;4188130;28;20127;-71
2024/01/23 00:16:43;;;;;;;132.45;66.72;;;;;;;-5.43;66.15;95698.06;4176413;28;20061;-70
2024/01/23 00:18:45;;;;;;;131.55;67.13;;;;;;;-5.39;66.20;95686.91;4194625;28;20466;-67
2024/01/23 00:20:47;;;;;;;131.88;67.03;;;;;;;-5.27;66.54;95690.03;4181177;28;20057;-69
2024/01/23 00:22:49;;;;;;;137.05;66.05;;;;;;;-5.11;65.25;95695.59;4192175;28;20052;-70
2024/01/23 00:24:51;;;;;;;125.57;64.07;;;;;;;-5.17;64.61;95691.47;4175239;28;20394;-70
2024/01/23 00:26:53;;;;;;;123.00;63.78;;;;;;;-5.40;64.82;95685.25;4188852;28;20052;-68
2024/01/23 00:28:55;;;;;;;127.18;63.30;;;;;;;-5.78;65.39;95684.47;4185628;28;20098;-69
2024/01/23 00:30:56;;;;;;;128.90;65.53;;;;;;;-5.97;66.38;95676.44;4192194;28;20055;-69
2024/01/23 00:32:59;;;;;;;130.55;65.75;;;;;;;-5.94;67.02;95678.03;4193430;28;20040;-69
2024/01/23 00:35:01;;;;;;;129.43;64.20;;;;;;;-5.93;67.14;95672.09;4190649;28;20048;-69
2024/01/23 00:37:03;;;;;;;130.40;62.90;;;;;;;-5.85;66.55;95672.75;4183950;28;20056;-71
2024/01/23 00:39:05;;;;;;;126.65;60.40;;;;;;;-5.85;67.32;95672.75;4194293;28;20055;-68
2024/01/23 00:41:07;;;;;;;125.60;59.75;;;;;;;-5.78;67.30;95669.16;4189251;28;20045;-68
2024/01/23 00:43:09;;;;;;;123.90;61.92;;;;;;;-5.73;66.89;95658.84;4182678;28;20045;-70
2024/01/23 00:45:11;;;;;;;123.90;61.10;;;;;;;-5.72;65.91;95659.66;4182431;28;20048;-70
2024/01/23 00:47:13;;;;;;;129.07;59.40;;;;;;;-5.73;66.28;95660.56;4187126;28;20160;-70
2024/01/23 00:49:14;;;;;;;119.03;58.28;;;;;;;-5.81;66.38;95666.69;4185880;28;20051;-68
2024/01/23 00:51:16;;;;;;;118.50;59.47;;;;;;;-5.80;66.52;95673.47;4192409;28;20143;-68
2024/01/23 00:53:18;;;;;;;122.15;57.00;;;;;;;-5.67;66.30;95665.50;4192329;28;20119;-69
2024/01/23 00:55:20;;;;;;;115.32;56.58;;;;;;;-5.59;65.88;95663.63;4190180;28;20388;-70
2024/01/23 00:57:22;;;;;;;118.43;58.20;;;;;;;-5.51;65.72;95651.47;4192452;28;20052;-69
2024/01/23 00:59:24;;;;;;;113.38;56.88;;;;;;;-5.52;65.06;95651.53;4189840;28;20051;-70
2024/01/23 01:01:26;;;;;;;117.18;56.80;;;;;;;-5.54;65.28;95659.22;4191377;28;20101;-69
2024/01/23 01:03:27;;;;;;;120.63;56.40;;;;;;;-5.61;65.58;95650.03;4185861;28;20110;-69
2024/01/23 01:05:29;;;;;;;125.30;60.67;;;;;;;-5.68;65.56;95646.78;4190801;28;20511;-70
2024/01/23 01:07:32;;;;;;;117.25;56.20;;;;;;;-5.64;64.97;95650.09;4189402;28;20052;-68
2024/01/23 01:09:33;;;;;;;120.72;56.47;;;;;;;-5.74;64.91;95649.50;4189481;28;20140;-69
2024/01/23 01:11:35;;;;;;;114.13;53.65;;;;;;;-5.80;65.81;95650.50;4188163;28;20566;-70
2024/01/23 01:13:37;;;;;;;124.47;57.15;;;;;;;-5.80;66.28;95647.94;4178231;28;20060;-70
2024/01/23 01:15:39;;;;;;;117.25;55.45;;;;;;;-5.94;65.43;95647.41;4177395;28;20072;-69
2024/01/23 01:17:41;;;;;;;129.93;56.97;;;;;;;-6.12;66.18;95646.19;4185383;28;20138;-69
2024/01/23 01:19:43;;;;;;;116.97;55.00;;;;;;;-6.24;66.51;95639.66;4194188;28;20063;-69
2024/01/23 01:21:45;;;;;;;126.70;58.13;;;;;;;-6.32;66.11;95636.44;4192163;28;20098;-69
2024/01/23 01:23:46;;;;;;;129.52;55.80;;;;;;;-6.36;67.32;95634.00;4170440;28;20064;-69
2024/01/23 01:25:48;;;;;;;121.40;55.65;;;;;;;-6.36;66.28;95634.84;4190774;28;20143;-69
2024/01/23 01:27:50;;;;;;;132.73;60.15;;;;;;;-6.54;66.66;95635.22;4189809;28;20052;-69
2024/01/23 01:29:52;;;;;;;127.18;59.58;;;;;;;-6.70;66.70;95630.47;4180921;28;20041;-69
2024/01/23 01:31:54;;;;;;;127.43;57.58;;;;;;;-6.61;67.06;95627.72;4187940;28;20056;-69
2024/01/23 01:33:55;;;;;;;135.15;59.40;;;;;;;-6.51;67.72;95628.38;4189449;28;20072;-70
2024/01/23 01:35:57;;;;;;;125.45;59.15;;;;;;;-6.34;66.48;95628.00;4182930;28;20045;-70
2024/01/23 01:37:59;;;;;;;136.55;58.15;;;;;;;-6.28;65.75;95620.22;4188991;28;20123;-69
2024/01/23 01:40:02;;;;;;;127.63;59.45;;;;;;;-6.26;65.94;95615.91;4187321;28;20729;-69
2024/01/23 01:42:04;;;;;;;124.90;57.42;;;;;;;-6.47;65.58;95617.25;4188820;28;20665;-70
2024/01/23 01:44:07;;;;;;;136.15;59.45;;;;;;;-6.59;66.29;95627.69;4205141;28;20062;-69
2024/01/23 01:46:12;;;;;;;128.10;55.38;;;;;;;-6.63;66.80;95621.81;4184442;28;20047;-70
2024/01/23 01:48:14;;;;;;;145.10;61.88;;;;;;;-6.71;66.36;95618.63;4181579;28;20135;-68
2024/01/23 01:50:16;;;;;;;144.35;58.38;;;;;;;-6.84;66.11;95615.50;4192231;28;20052;-69
2024/01/23 01:52:18;;;;;;;132.20;60.13;;;;;;;-6.96;66.92;95614.91;4190541;28;20040;-69
2024/01/23 01:54:21;;;;;;;119.43;55.72;;;;;;;-7.25;67.39;95616.31;4182131;28;20053;-68
2024/01/23 01:56:23;;;;;;;132.25;55.58;;;;;;;-7.28;67.87;95618.94;4185170;28;20083;-68
2024/01/23 01:58:28;;;;;;;127.05;54.05;;;;;;;-7.33;66.87;95615.66;4177830;28;20103;-68
2024/01/23 02:00:30;;;;;;;118.82;52.03;;;;;;;-7.33;67.17;95619.03;4187071;28;20056;-68
2024/01/23 02:02:32;;;;;;;120.75;55.05;;;;;;;-7.38;67.06;95618.25;4192271;28;20080;-69
2024/01/23 02:04:34;;;;;;;121.75;52.88;;;;;;;-7.48;67.60;95620.16;4186847;28;20103;-69
2024/01/23 02:06:36;;;;;;;122.78;54.75;;;;;;;-7.28;68.59;95606.19;4189089;28;20131;-68
2024/01/23 02:08:39;;;;;;;127.13;52.90;;;;;;;-7.07;67.07;95603.22;4189294;28;20142;-69
2024/01/23 02:10:40;;;;;;;114.25;51.65;;;;;;;-7.14;67.18;95603.38;4198558;28;20059;-69
2024/01/23 02:12:42;;;;;;;125.03;52.83;;;;;;;-7.14;67.02;95596.59;4180939;28;20044;-67
2024/01/23 02:14:44;;;;;;;120.43;54.10;;;;;;;-7.22;66.58;95598.44;4195574;28;20045;-69
2024/01/23 02:16:46;;;;;;;126.22;55.25;;;;;;;-7.21;67.57;95590.75;4185064;28;20052;-69
2024/01/23 02:18:48;;;;;;;132.07;54.25;;;;;;;-7.13;67.49;95594.88;4192405;28;20048;-68
2024/01/23 02:20:50;;;;;;;140.82;56.50;;;;;;;-7.00;67.89;95589.47;4184216;28;20059;-68
2024/01/23 02:22:55;;;;;;;115.72;52.42;;;;;;;-6.93;66.86;95597.81;4186809;28;20053;-70
2024/01/23 02:25:15;;;;;;;125.05;54.05;;;;;;;-6.81;66.60;95589.94;4179671;28;20044;-69
2024/01/23 02:27:17;;;;;;;119.82;51.65;;;;;;;-6.58;66.43;95580.97;4169911;28;20057;-68
2024/01/23 02:29:19;;;;;;;123.05;54.80;;;;;;;-6.44;65.50;95583.19;4178405;28;20059;-69
2024/01/23 02:31:21;;;;;;;123.85;54.55;;;;;;;-6.25;65.01;95578.50;4185706;28;20045;-68
2024/01/23 02:33:23;;;;;;;128.85;54.80;;;;;;;-6.12;64.70;95576.50;4189310;28;20517;-69
2024/01/23 02:35:25;;;;;;;118.22;53.65;;;;;;;-6.05;64.26;95567.78;4187256;28;20048;-69
2024/01/23 02:37:26;;;;;;;122.53;54.80;;;;;;;-6.12;63.91;95566.28;4179598;28;20049;-69
2024/01/23 02:39:29;;;;;;;122.03;53.22;;;;;;;-6.15;64.37;95568.91;4180899;28;20057;-67
2024/01/23 02:41:30;;;;;;;120.82;53.25;;;;;;;-6.24;64.30;95559.75;4182961;28;20416;-69
2024/01/23 02:43:32;;;;;;;119.43;57.85;;;;;;;-6.31;65.31;95555.69;4184531;28;20440;-69
2024/01/23 02:45:35;;;;;;;122.93;55.40;;;;;;;-6.27;65.83;95555.56;4178866;28;20459;-71
2024/01/23 02:47:37;;;;;;;118.85;53.40;;;;;;;-6.29;64.98;95559.03;4185951;28;20132;-68
2024/01/23 02:49:39;;;;;;;126.88;55.42;;;;;;;-6.43;65.38;95559.34;4188373;28;20044;-68
2024/01/23 02:51:41;;;;;;;121.82;55.97;;;;;;;-6.53;64.92;95557.91;4186524;28;20044;-69
2024/01/23 02:53:43;;;;;;;114.53;53.25;;;;;;;-6.55;66.22;95550.28;4189224;28;20051;-71
2024/01/23 02:55:45;;;;;;;132.98;57.45;;;;;;;-6.48;65.77;95541.63;4186907;28;20070;-68
2024/01/23 02:57:47;;;;;;;129.05;54.97;;;;;;;-6.59;65.40;95546.13;4186627;28;20044;-70
2024/01/23 02:59:48;;;;;;;129.75;56.15;;;;;;;-6.67;65.92;95542.91;4186913;28;20056;-68
2024/01/23 03:01:50;;;;;;;140.02;57.03;;;;;;;-6.67;66.01;95533.56;4188260;28;20554;-69
2024/01/23 03:03:52;;;;;;;114.85;53.90;;;;;;;-6.67;66.64;95541.19;4170244;28;20510;-68
2024/01/23 03:05:54;;;;;;;123.80;56.53;;;;;;;-6.65;66.76;95534.34;4177557;28;20139;-69
2024/01/23 03:07:56;;;;;;;113.75;52.85;;;;;;;-6.69;66.79;95534.47;4190102;28;20048;-67
2024/01/23 03:09:57;;;;;;;116.07;53.85;;;;;;;-6.64;67.27;95540.31;4184661;28;20080;-68
2024/01/23 03:11:59;;;;;;;123.80;54.72;;;;;;;-6.54;67.22;95528.19;4204727;28;20076;-69
2024/01/23 03:14:01;;;;;;;140.30;59.97;;;;;;;-6.58;66.79;95522.34;4185240;28;20068;-68
2024/01/23 03:16:04;;;;;;;136.35;56.58;;;;;;;-6.63;65.47;95530.06;4188497;28;20048;-69
2024/01/23 03:18:06;;;;;;;133.93;55.75;;;;;;;-6.57;66.63;95518.06;4191906;28;20045;-69
2024/01/23 03:20:09;;;;;;;133.43;58.90;;;;;;;-6.47;65.89;95517.81;4188198;28;20048;-68
2024/01/23 03:22:11;;;;;;;126.45;57.03;;;;;;;-6.38;66.44;95515.03;4187959;28;20055;-69
2024/01/23 03:24:13;;;;;;;134.65;59.83;;;;;;;-6.41;65.50;95515.13;4183147;28;20048;-69
2024/01/23 03:26:15;;;;;;;131.30;59.83;;;;;;;-6.40;65.49;95511.69;4172512;28;20057;-70
2024/01/23 03:28:17;;;;;;;136.00;58.58;;;;;;;-6.42;65.34;95507.50;4178543;28;20143;-69
2024/01/23 03:30:29;;;;;;;138.95;59.63;;;;;;;-6.48;66.42;95502.53;4186960;28;20049;-69
2024/01/23 03:32:31;;;;;;;129.70;57.55;;;;;;;-6.55;66.37;95496.75;4206454;28;20128;-69
2024/01/23 03:34:33;;;;;;;128.70;58.10;;;;;;;-6.72;66.56;95491.22;4182703;28;20053;-70
2024/01/23 03:36:35;;;;;;;133.02;54.88;;;;;;;-6.72;66.22;95486.97;4183906;28;20047;-69
2024/01/23 03:38:37;;;;;;;117.20;57.83;;;;;;;-6.77;66.55;95480.28;4184663;28;20138;-69
2024/01/23 03:40:39;;;;;;;130.20;56.30;;;;;;;-6.71;66.97;95477.59;4192349;28;20055;-69
2024/01/23 03:42:41;;;;;;;123.75;56.50;;;;;;;-6.73;67.01;95482.75;4195206;28;20147;-68
2024/01/23 03:44:43;;;;;;;118.20;54.35;;;;;;;-6.95;66.07;95481.56;4191729;28;20510;-68
2024/01/23 03:46:45;;;;;;;118.97;51.35;;;;;;;-6.90;66.10;95484.88;4182469;28;20083;-69
2024/01/23 03:48:46;;;;;;;112.60;51.35;;;;;;;-7.04;66.14;95485.16;4182716;28;20095;-70
2024/01/23 03:50:48;;;;;;;109.32;50.15;;;;;;;-7.24;65.80;95485.59;4194068;28;20502;-69
2024/01/23 03:52:50;;;;;;;105.47;52.22;;;;;;;-7.20;67.32;95477.03;4187642;28;20131;-68
2024/01/23 03:54:52;;;;;;;108.25;50.58;;;;;;;-7.07;66.95;95477.59;4187474;28;20171;-69
2024/01/23 03:56:54;;;;;;;113.93;50.85;;;;;;;-7.08;66.43;95475.91;4196115;28;20597;-70
2024/01/23 03:58:56;;;;;;;105.75;50.38;;;;;;;-7.02;66.35;95468.97;4190351;28;20056;-70
2024/01/23 04:00:59;;;;;;;108.22;49.75;;;;;;;-6.93;66.65;95464.53;4192890;28;20080;-69
2024/01/23 04:03:03;;;;;;;106.57;50.42;;;;;;;-6.98;66.15;95468.91;4185350;28;20227;-67
2024/01/23 04:05:05;;;;;;;107.28;52.55;;;;;;;-7.07;66.16;95473.34;4186740;28;20052;-68
2024/01/23 04:07:07;;;;;;;122.20;54.13;;;;;;;-7.10;66.85;95467.47;4197532;28;20044;-69
2024/01/23 04:09:09;;;;;;;107.38;52.00;;;;;;;-7.10;67.13;95470.84;4193663;28;20044;-66
2024/01/23 04:11:11;;;;;;;114.53;52.63;;;;;;;-7.11;66.60;95469.19;4197634;28;20052;-69
2024/01/23 04:13:13;;;;;;;112.55;52.70;;;;;;;-7.12;67.25;95472.63;4195082;28;20051;-70
2024/01/23 04:15:15;;;;;;;130.73;54.85;;;;;;;-7.15;66.72;95474.38;4195591;28;20048;-70
2024/01/23 04:17:17;;;;;;;120.63;54.85;;;;;;;-7.28;67.05;95478.91;4195285;28;20048;-69
2024/01/23 04:19:18;;;;;;;114.05;54.00;;;;;;;-7.32;66.91;95474.75;4190006;28;20048;-68
2024/01/23 04:21:21;;;;;;;117.18;53.67;;;;;;;-7.21;67.54;95477.88;4192067;28;20157;-67
2024/01/23 04:23:23;;;;;;;118.32;52.60;;;;;;;-7.08;67.50;95464.00;4188842;28;20060;-69
2024/01/23 04:25:25;;;;;;;117.47;52.55;;;;;;;-6.89;67.76;95466.97;4188219;28;20446;-69
2024/01/23 04:27:27;;;;;;;115.78;52.97;;;;;;;-6.76;65.92;95467.53;4183038;28;20048;-69
2024/01/23 04:29:29;;;;;;;98.22;49.35;;;;;;;-6.96;65.75;95468.00;4184764;28;20051;-68
2024/01/23 04:31:31;;;;;;;105.05;50.22;;;;;;;-7.25;64.65;95466.97;4178054;28;20057;-68
2024/01/23 04:33:32;;;;;;;105.55;49.38;;;;;;;-7.48;64.53;95462.34;4195675;28;20051;-69
2024/01/23 04:35:35;;;;;;;109.40;49.50;;;;;;;-7.75;65.88;95468.00;4189832;28;20102;-71
2024/01/23 04:37:36;;;;;;;102.55;47.47;;;;;;;-7.96;66.70;95467.53;4195240;28;20109;-69
2024/01/23 04:39:38;;;;;;;98.88;45.95;;;;;;;-8.31;67.12;95471.59;4194464;28;20351;-69
2024/01/23 04:41:40;;;;;;;104.07;48.72;;;;;;;-8.67;68.64;95471.41;4187831;28;20052;-68
2024/01/23 04:43:42;;;;;;;106.55;48.10;;;;;;;-8.98;69.00;95473.56;4207301;28;20131;-71
2024/01/23 04:45:44;;;;;;;111.47;48.50;;;;;;;-9.20;69.82;95464.63;4189573;28;20250;-69
2024/01/23 04:47:46;;;;;;;122.28;51.80;;;;;;;-9.23;70.45;95479.88;4194533;28;20337;-69
2024/01/23 04:49:48;;;;;;;112.78;50.65;;;;;;;-9.32;70.59;95470.69;4186279;28;20068;-69
2024/01/23 04:51:50;;;;;;;112.18;50.17;;;;;;;-9.49;71.27;95473.44;4187740;28;20111;-70
2024/01/23 04:53:52;;;;;;;119.53;50.88;;;;;;;-9.44;71.64;95470.84;4189407;28;20135;-70
2024/01/23 04:55:54;;;;;;;109.90;49.05;;;;;;;-9.52;71.08;95473.50;4203855;28;20078;-69
2024/01/23 04:57:56;;;;;;;121.38;52.63;;;;;;;-9.34;70.78;95482.56;4182171;28;20067;-71
2024/01/23 04:59:58;;;;;;;119.28;50.65;;;;;;;-9.18;70.56;95478.13;4188316;28;20052;-70
2024/01/23 05:02:00;;;;;;;130.05;53.85;;;;;;;-9.08;70.08;95474.56;4190629;28;20052;-69
2024/01/23 05:04:02;;;;;;;108.40;48.58;;;;;;;-8.88;69.68;95471.75;4185214;28;20055;-70
2024/01/23 05:06:04;;;;;;;111.20;48.03;;;;;;;-8.83;69.14;95466.59;4188413;28;20476;-70
2024/01/23 05:08:06;;;;;;;107.20;47.00;;;;;;;-8.64;69.30;95464.59;4185849;28;20063;-69
2024/01/23 05:10:08;;;;;;;106.30;46.90;;;;;;;-8.52;68.33;95472.00;4190993;28;20538;-70
2024/01/23 05:12:11;;;;;;;124.38;49.85;;;;;;;-8.57;67.93;95466.16;4183783;28;20477;-69
2024/01/23 05:14:15;;;;;;;110.25;49.08;;;;;;;-8.81;67.78;95468.22;4189203;28;20109;-69
2024/01/23 05:16:18;;;;;;;111.25;48.45;;;;;;;-8.79;69.26;95468.22;4190197;28;20144;-68
2024/01/23 05:18:20;;;;;;;112.15;48.72;;;;;;;-8.74;68.82;95463.91;4179359;28;20057;-71
2024/01/23 05:20:22;;;;;;;110.78;47.50;;;;;;;-8.61;68.71;95467.06;4189907;28;20287;-69
2024/01/23 05:22:24;;;;;;;99.55;45.10;;;;;;;-8.56;67.56;95460.19;4191731;28;20483;-69
2024/01/23 05:24:27;;;;;;;107.93;47.33;;;;;;;-8.30;68.26;95459.69;4202874;28;20048;-68
2024/01/23 05:26:29;;;;;;;97.32;42.65;;;;;;;-7.98;67.10;95454.00;4183953;28;20051;-70
2024/01/23 05:28:31;;;;;;;101.22;44.08;;;;;;;-7.71;66.14;95449.28;4181693;28;20143;-71
2024/01/23 05:30:33;;;;;;;110.55;45.53;;;;;;;-7.82;64.18;95447.78;4192015;28;20052;-69
2024/01/23 05:32:35;;;;;;;104.85;46.30;;;;;;;-8.00;64.63;95443.06;4191098;28;20068;-70
2024/01/23 05:34:37;;;;;;;98.82;44.58;;;;;;;-8.10;65.02;95449.19;4182874;28;20091;-68
2024/01/23 05:36:39;;;;;;;107.05;47.60;;;;;;;-7.97;65.93;95445.53;4201288;28;20064;-68
2024/01/23 05:38:41;;;;;;;110.15;46.75;;;;;;;-7.83;66.12;95442.72;4185872;28;20075;-69
2024/01/23 05:40:43;;;;;;;104.65;45.35;;;;;;;-7.78;65.00;95437.56;4186681;28;20067;-70
2024/01/23 05:42:45;;;;;;;111.72;49.25;;;;;;;-7.82;65.03;95431.69;4187170;28;20538;-70
2024/01/23 05:44:47;;;;;;;106.55;49.45;;;;;;;-7.88;65.66;95431.81;4186027;28;20063;-68
2024/01/23 05:46:49;;;;;;;107.45;48.40;;;;;;;-7.78;65.04;95433.28;4191897;28;20407;-70
2024/01/23 05:48:50;;;;;;;111.05;50.53;;;;;;;-7.71;64.75;95431.47;4188340;28;20049;-70
2024/01/23 05:50:52;;;;;;;116.63;50.60;;;;;;;-7.83;65.72;95432.53;4189765;28;20049;-69
2024/01/23 05:52:54;;;;;;;105.55;49.88;;;;;;;-7.76;66.34;95428.19;4188797;28;20045;-69
2024/01/23 05:54:59;;;;;;;115.38;50.60;;;;;;;-7.51;66.15;95424.22;4200659;28;20094;-70
2024/01/23 05:57:00;;;;;;;113.70;49.53;;;;;;;-7.38;65.92;95422.25;4190801;28;20098;-71
2024/01/23 05:59:02;;;;;;;112.43;49.85;;;;;;;-7.40;65.56;95418.91;4179190;28;20056;-71
2024/01/23 06:01:04;;;;;;;110.90;49.25;;;;;;;-7.39;65.73;95419.75;4191493;28;20059;-69
2024/01/23 06:03:06;;;;;;;128.95;51.17;;;;;;;-7.34;66.44;95426.41;4188591;28;20273;-69
2024/01/23 06:05:08;;;;;;;119.20;52.28;;;;;;;-7.31;66.80;95428.91;4190628;28;20045;-70
2024/01/23 06:07:11;;;;;;;119.90;53.50;;;;;;;-7.23;66.92;95421.06;4189427;28;20539;-69
2024/01/23 06:09:13;;;;;;;124.72;49.17;;;;;;;-7.10;68.15;95417.38;4182239;28;20125;-69
2024/01/23 06:11:15;;;;;;;120.32;51.38;;;;;;;-6.99;67.86;95414.56;4189373;28;20052;-69
2024/01/23 06:13:17;;;;;;;115.55;49.72;;;;;;;-6.95;67.11;95422.97;4184926;28;20080;-70
2024/01/23 06:15:19;;;;;;;120.18;54.40;;;;;;;-7.13;65.68;95424.25;4181870;28;20953;-70
2024/01/23 06:17:21;;;;;;;135.07;57.40;;;;;;;-7.47;64.55;95433.47;4185515;28;20395;-70
2024/01/23 06:19:23;;;;;;;116.82;54.78;;;;;;;-7.93;65.37;95431.91;4182542;28;20507;-70
2024/01/23 06:21:25;;;;;;;127.03;56.38;;;;;;;-8.72;67.47;95447.75;4189812;28;20051;-69
2024/01/23 06:23:27;;;;;;;132.20;59.22;;;;;;;-9.41;68.99;95450.53;4189439;28;20476;-68
2024/01/23 06:25:29;;;;;;;146.63;63.22;;;;;;;-9.64;71.19;95466.88;4189918;28;20048;-70
2024/01/23 06:27:31;;;;;;;132.13;59.58;;;;;;;-9.72;71.43;95471.19;4175158;28;20049;-70
2024/01/23 06:29:33;;;;;;;154.95;63.97;;;;;;;-9.79;71.55;95472.16;4187988;28;20075;-70
2024/01/23 06:31:35;;;;;;;167.68;68.53;;;;;;;-9.89;72.09;95469.72;4187830;28;20431;-70
2024/01/23 06:33:37;;;;;;;157.80;64.35;;;;;;;-9.70;71.19;95474.56;4184488;28;20051;-70
2024/01/23 06:35:39;;;;;;;150.82;61.33;;;;;;;-9.82;70.36;95484.88;4183827;28;20127;-69
2024/01/23 06:37:41;;;;;;;145.05;64.68;;;;;;;-10.06;71.88;95491.06;4186971;28;20071;-71
2024/01/23 06:39:42;;;;;;;146.10;60.17;;;;;;;-10.28;71.52;95492.97;4187742;28;20537;-70
2024/01/23 06:41:45;;;;;;;143.68;57.47;;;;;;;-10.42;73.01;95493.97;4184965;28;20058;-70
2024/01/23 06:43:47;;;;;;;141.75;51.35;;;;;;;-10.20;73.04;95498.81;4199998;28;20426;-70
2024/01/23 06:45:49;;;;;;;138.77;53.10;;;;;;;-9.91;71.68;95491.72;4189714;28;20051;-70
2024/01/23 06:47:51;;;;;;;133.40;58.80;;;;;;;-9.84;72.19;95495.03;4188264;28;20049;-69
2024/01/23 06:49:53;;;;;;;142.23;57.60;;;;;;;-9.86;71.53;95494.19;4190855;28;20396;-70
2024/01/23 06:51:55;;;;;;;143.82;60.10;;;;;;;-9.68;71.81;95481.31;4181589;28;20060;-69
2024/01/23 06:53:57;;;;;;;144.13;58.55;;;;;;;-9.37;71.27;95488.53;4175983;28;20423;-71
2024/01/23 06:56:03;;;;;;;143.07;58.25;;;;;;;-9.10;70.51;95496.59;4175995;28;20053;-69
2024/01/23 06:58:05;;;;;;;157.05;65.78;;;;;;;-8.61;70.02;95489.94;4169065;28;20622;-70
2024/01/23 07:00:08;;;;;;;160.95;70.65;;;;;;;-8.13;68.39;95488.22;4189177;28;20061;-69
2024/01/23 07:02:11;;;;;;;170.52;74.55;;;;;;;-7.72;66.59;95467.94;4190951;28;20090;-70
2024/01/23 07:04:12;;;;;;;174.55;72.65;;;;;;;-7.42;64.84;95466.47;4190666;28;20076;-70
2024/01/23 07:06:14;;;;;;;171.73;75.65;;;;;;;-7.19;64.30;95457.50;4189206;28;20147;-70
2024/01/23 07:08:16;;;;;;;159.45;75.25;;;;;;;-6.94;64.43;95452.69;4183999;28;20057;-70
2024/01/23 07:10:19;;;;;;;161.70;78.10;;;;;;;-6.83;63.78;95458.38;4196128;28;20408;-71
2024/01/23 07:12:20;;;;;;;181.70;83.28;;;;;;;-6.65;63.84;95449.44;4187215;28;20148;-70
2024/01/23 07:14:22;;;;;;;173.07;79.10;;;;;;;-6.58;63.43;95448.44;4188091;28;20110;-69
2024/01/23 07:16:24;;;;;;;169.02;79.95;;;;;;;-6.45;62.87;95441.31;4188544;28;20041;-70
2024/01/23 07:18:27;;;;;;;157.70;70.68;;;;;;;-6.34;63.00;95428.28;4189255;28;20071;-70
2024/01/23 07:20:29;;;;;;;159.90;70.60;;;;;;;-6.30;63.00;95422.19;4181272;28;20510;-70
2024/01/23 07:22:31;;;;;;;138.65;66.20;;;;;;;-6.48;62.93;95420.97;4174659;28;20356;-69
2024/01/23 07:24:32;;;;;;;143.60;69.22;;;;;;;-6.25;64.25;95428.88;4182373;28;20041;-70
2024/01/23 07:26:34;;;;;;;148.25;69.45;;;;;;;-6.04;64.26;95436.84;4180090;28;20041;-71
2024/01/23 07:28:36;;;;;;;140.88;64.40;;;;;;;-5.87;63.54;95438.88;4181467;28;20064;-70
2024/01/23 07:30:58;;;;;;;133.60;64.30;;;;;;;-5.64;62.76;95451.00;4185590;28;20086;-71
2024/01/23 07:32:59;;;;;;;138.65;67.72;;;;;;;-5.43;62.20;95454.66;4197131;28;20317;-69
2024/01/23 07:35:02;;;;;;;118.10;61.72;;;;;;;-5.20;61.58;95459.94;4185665;28;20136;-69
2024/01/23 07:37:04;;;;;;;137.53;65.70;;;;;;;-5.04;60.82;95473.06;4185473;28;22901;-71
2024/01/23 07:39:06;;;;;;;139.00;68.40;;;;;;;-4.83;60.40;95465.63;4191561;28;20687;-71
2024/01/23 07:41:08;;;;;;;134.48;65.22;;;;;;;-4.71;60.33;95460.16;4202933;28;20055;-68
2024/01/23 07:43:10;;;;;;;128.15;69.85;;;;;;;-4.83;60.02;95457.97;4185075;28;20052;-70
2024/01/23 07:45:12;;;;;;;144.10;72.32;;;;;;;-4.67;60.86;95455.75;4190515;28;20049;-72
2024/01/23 07:47:14;;;;;;;148.45;72.32;;;;;;;-4.64;60.51;95448.84;4184686;28;20387;-71
2024/01/23 07:49:16;;;;;;;150.10;73.88;;;;;;;-4.71;60.08;95452.50;4188314;28;20044;-71
2024/01/23 07:51:18;;;;;;;157.52;79.20;;;;;;;-4.67;59.91;95456.59;4192616;28;20479;-70
2024/01/23 07:53:20;;;;;;;169.73;81.53;;;;;;;-4.76;60.11;95459.44;4192735;28;20427;-70
2024/01/23 07:55:22;;;;;;;150.35;78.18;;;;;;;-4.85;60.32;95458.00;4184163;28;20136;-71
2024/01/23 07:57:24;;;;;;;148.45;74.00;;;;;;;-4.86;61.63;95465.72;4187973;28;20045;-72
2024/01/23 07:59:26;;;;;;;134.48;69.85;;;;;;;-4.72;61.03;95465.31;4180073;28;20052;-71
2024/01/23 08:01:27;;;;;;;135.48;72.32;;;;;;;-4.75;61.14;95459.41;4190407;28;20080;-71
2024/01/23 08:03:29;;;;;;;136.55;69.93;;;;;;;-4.70;62.03;95455.88;4185740;28;20076;-71
2024/01/23 08:05:31;;;;;;;137.15;70.13;;;;;;;-4.53;61.60;95457.00;4181497;28;20052;-71
2024/01/23 08:07:33;;;;;;;134.60;72.93;;;;;;;-4.24;60.52;95455.19;4190150;28;20372;-70
2024/01/23 08:09:35;;;;;;;139.75;76.15;;;;;;;-4.07;59.74;95452.06;4185264;28;20076;-70
2024/01/23 08:11:36;;;;;;;136.07;71.72;;;;;;;-4.03;59.70;95452.78;4191992;28;20048;-71
2024/01/23 08:13:38;;;;;;;141.23;73.32;;;;;;;-4.16;59.46;95448.09;4177774;28;20057;-71
2024/01/23 08:15:40;;;;;;;146.40;74.28;;;;;;;-4.03;60.23;95453.63;4181672;28;20202;-70
2024/01/23 08:17:42;;;;;;;148.30;77.47;;;;;;;-3.87;59.65;95448.84;4181503;28;20102;-70
2024/01/23 08:19:43;;;;;;;147.05;76.68;;;;;;;-3.76;59.56;95445.88;4183639;28;20048;-70
2024/01/23 08:21:45;;;;;;;155.85;78.35;;;;;;;-4.01;58.89;95445.91;4189758;28;20045;-70
2024/01/23 08:23:47;;;;;;;144.38;78.20;;;;;;;-4.04;59.58;95451.13;4187509;28;20048;-71
2024/01/23 08:25:49;;;;;;;156.38;82.28;;;;;;;-4.04;59.44;95456.22;4182313;28;20048;-70
2024/01/23 08:27:51;;;;;;;168.63;85.15;;;;;;;-4.23;59.55;95453.47;4187644;28;20169;-72
2024/01/23 08:29:53;;;;;;;165.18;82.75;;;;;;;-4.20;60.46;95446.53;4188398;28;20049;-72
2024/01/23 08:31:55;;;;;;;155.60;82.00;;;;;;;-4.34;60.37;95451.28;4185853;28;20048;-71
2024/01/23 08:33:57;;;;;;;165.27;84.82;;;;;;;-4.34;60.31;95448.72;4193431;28;20055;-72
2024/01/23 08:36:01;;;;;;;158.27;79.15;;;;;;;-4.14;60.30;95442.94;4193381;28;20052;-71
2024/01/23 08:38:03;;;;;;;154.68;81.25;;;;;;;-4.02;59.79;95447.63;4192148;28;20056;-71
2024/01/23 08:40:06;;;;;;;162.73;84.35;;;;;;;-3.98;59.15;95445.78;4188987;28;20446;-72
2024/01/23 08:42:08;;;;;;;167.00;80.95;;;;;;;-3.78;59.35;95447.66;4169889;28;20053;-71
2024/01/23 08:44:10;;;;;;;159.25;84.70;;;;;;;-4.00;58.68;95453.53;4189262;28;20159;-69
2024/01/23 08:46:15;;;;;;;165.18;85.30;;;;;;;-4.14;59.98;95458.28;4191718;28;20232;-71
2024/01/23 08:48:21;;;;;;;157.00;83.65;;;;;;;-3.96;60.24;95454.25;4189309;28;20127;-71
2024/01/23 08:50:23;;;;;;;163.32;83.88;;;;;;;-3.76;59.35;95451.00;4194931;28;20419;-69
2024/01/23 08:52:25;;;;;;;164.82;84.95;;;;;;;-3.66;58.95;95446.38;4188588;28;20048;-72
2024/01/23 08:54:27;;;;;;;159.32;84.53;;;;;;;-3.33;59.16;95447.72;4193141;28;20055;-71
2024/01/23 08:56:30;;;;;;;157.38;83.82;;;;;;;-2.94;58.30;95447.09;4186726;28;20550;-72
2024/01/23 08:58:32;;;;;;;160.45;82.07;;;;;;;-2.84;57.19;95444.16;4191626;28;20103;-70
2024/01/23 09:00:34;;;;;;;158.55;82.38;;;;;;;-3.06;57.30;95441.59;4204424;28;20132;-71
2024/01/23 09:02:36;;;;;;;170.80;84.97;;;;;;;-3.10;58.31;95436.59;4204769;28;20044;-71
2024/01/23 09:04:37;;;;;;;160.18;82.75;;;;;;;-2.80;58.04;95438.84;4184588;28;20057;-70
2024/01/23 09:06:39;;;;;;;164.63;85.20;;;;;;;-2.58;57.24;95438.84;4191476;28;20421;-71
2024/01/23 09:08:45;;;;;;;171.70;85.72;;;;;;;-2.34;56.48;95423.38;4184403;28;20045;-71
2024/01/23 09:10:49;;;;;;;156.45;83.55;;;;;;;-2.18;55.98;95426.13;4172784;28;20049;-71
2024/01/23 09:12:51;;;;;;;167.45;87.05;;;;;;;-2.31;56.21;95426.63;4206097;28;20050;-71
2024/01/23 09:14:53;;;;;;;158.52;86.45;;;;;;;-2.15;55.81;95423.41;4193525;28;20127;-70